createdAt,value
2019-02-04T00:02:01.224Z,1.77
2019-02-04T00:04:31.599Z,1.78
2019-02-04T00:07:02.182Z,1.76
2019-02-04T00:09:32.684Z,1.77
2019-02-04T00:12:04.568Z,1.76
2019-02-04T00:14:34.920Z,1.70
2019-02-04T00:17:05.770Z,1.74
2019-02-04T00:19:36.246Z,1.78
2019-02-04T00:22:07.061Z,1.76
2019-02-04T00:24:37.963Z,1.76
2019-02-04T00:27:10.585Z,1.71
2019-02-04T00:29:42.886Z,1.74
2019-02-04T00:32:13.427Z,1.78
2019-02-04T00:34:43.729Z,1.74
2019-02-04T00:37:14.037Z,1.75
2019-02-04T00:39:45.709Z,1.70
2019-02-04T00:42:16.362Z,1.69
2019-02-04T00:44:47.777Z,1.60
2019-02-04T00:47:18.425Z,1.56
2019-02-04T00:49:49.083Z,1.54
2019-02-04T00:52:19.454Z,1.55
2019-02-04T00:54:52.145Z,1.56
2019-02-04T00:57:22.615Z,1.56
2019-02-04T00:59:52.983Z,1.35
2019-02-04T01:02:23.470Z,1.45
2019-02-04T01:04:53.895Z,1.48
2019-02-04T01:07:24.265Z,1.53
2019-02-04T01:09:54.784Z,1.50
2019-02-04T01:12:25.179Z,1.52
2019-02-04T01:14:55.836Z,1.48
2019-02-04T01:17:26.299Z,1.42
2019-02-04T01:19:56.734Z,1.44
2019-02-04T01:22:27.261Z,1.30
2019-02-04T01:24:57.542Z,1.37
2019-02-04T01:27:28.134Z,1.40
2019-02-04T01:29:58.437Z,1.33
2019-02-04T01:32:28.773Z,1.20
2019-02-04T01:34:59.177Z,1.18
2019-02-04T01:37:29.830Z,1.22
2019-02-04T01:40:00.463Z,1.21
2019-02-04T01:42:30.765Z,1.25
2019-02-04T01:45:01.247Z,1.27
2019-02-04T01:47:32.894Z,1.29
2019-02-04T01:50:03.245Z,1.25
2019-02-04T01:52:33.547Z,1.22
2019-02-04T01:55:04.108Z,1.24
2019-02-04T01:57:34.564Z,1.14
2019-02-04T02:00:07.640Z,1.14
2019-02-04T02:02:38.435Z,1.23
2019-02-04T02:05:09.017Z,1.19
2019-02-04T02:07:39.731Z,1.09
2019-02-04T02:10:11.407Z,1.04
2019-02-04T02:12:41.771Z,1.02
2019-02-04T02:15:12.576Z,1.02
2019-02-04T02:17:43.009Z,1.09
2019-02-04T02:20:15.692Z,0.96
2019-02-04T02:22:46.026Z,1.03
2019-02-04T02:25:17.237Z,0.96
2019-02-04T02:27:47.545Z,0.99
2019-02-04T02:30:31.707Z,0.95
2019-02-04T02:33:02.555Z,0.90
2019-02-04T02:35:32.915Z,0.86
2019-02-04T02:38:04.504Z,0.90
2019-02-04T02:40:35.656Z,0.81
2019-02-04T02:43:07.062Z,0.86
2019-02-04T02:45:46.840Z,0.89
2019-02-04T02:48:17.120Z,0.86
2019-02-04T02:50:47.490Z,0.80
2019-02-04T02:53:18.907Z,0.78
2019-02-04T02:55:51.230Z,0.75
2019-02-04T02:58:21.701Z,0.76
2019-02-04T03:00:52.086Z,0.73
2019-02-04T03:03:22.423Z,0.74
2019-02-04T03:05:52.717Z,0.73
2019-02-04T03:08:23.859Z,0.70
2019-02-04T03:10:56.250Z,0.69
2019-02-04T03:13:26.995Z,0.67
2019-02-04T03:15:57.488Z,0.62
2019-02-04T03:18:28.258Z,0.55
2019-02-04T03:21:05.146Z,0.53
2019-02-04T03:23:37.604Z,0.55
2019-02-04T03:26:08.562Z,0.51
2019-02-04T03:28:38.911Z,0.55
2019-02-04T03:31:09.506Z,0.54
2019-02-04T03:33:39.942Z,0.56
2019-02-04T03:36:10.468Z,0.53
2019-02-04T03:38:40.734Z,0.55
2019-02-04T03:41:11.017Z,0.58
2019-02-04T03:43:41.303Z,0.62
2019-02-04T03:46:11.847Z,0.61
2019-02-04T03:48:44.511Z,0.65
2019-02-04T03:51:14.704Z,0.68
2019-02-04T03:53:45.241Z,0.68
2019-02-04T03:56:15.734Z,0.69
2019-02-04T03:58:52.089Z,0.74
2019-02-04T04:01:22.418Z,0.77
2019-02-04T04:03:53.238Z,0.84
2019-02-04T04:06:24.049Z,0.85
2019-02-04T04:08:54.840Z,0.84
2019-02-04T04:11:25.071Z,0.85
2019-02-04T04:13:55.467Z,0.82
2019-02-04T04:16:25.771Z,0.81
2019-02-04T04:18:56.149Z,0.80
2019-02-04T04:21:27.288Z,0.81
2019-02-04T04:23:57.604Z,0.78
2019-02-04T04:26:27.927Z,0.80
2019-02-04T04:28:59.468Z,0.80
2019-02-04T04:31:29.714Z,0.80
2019-02-04T04:33:59.997Z,0.84
2019-02-04T04:36:30.465Z,0.84
2019-02-04T04:39:01.018Z,0.85
2019-02-04T04:41:31.544Z,0.83
2019-02-04T04:44:02.021Z,0.86
2019-02-04T04:46:32.226Z,0.91
2019-02-04T04:49:02.588Z,0.86
2019-02-04T04:51:32.974Z,0.85
2019-02-04T04:54:03.283Z,0.82
2019-02-04T04:56:33.833Z,0.75
2019-02-04T04:59:04.717Z,0.72
2019-02-04T05:01:36.315Z,0.67
2019-02-04T05:04:06.619Z,0.60
2019-02-04T05:06:37.278Z,0.58
2019-02-04T05:09:08.035Z,0.57
2019-02-04T05:11:38.474Z,0.55
2019-02-04T05:14:09.174Z,0.54
2019-02-04T05:16:39.756Z,0.49
2019-02-04T05:19:10.028Z,0.45
2019-02-04T05:21:40.405Z,0.46
2019-02-04T05:24:10.810Z,0.46
2019-02-04T05:26:41.022Z,0.48
2019-02-04T05:29:11.462Z,0.53
2019-02-04T05:31:42.731Z,0.53
2019-02-04T05:34:13.187Z,0.60
2019-02-04T05:36:43.503Z,0.61
2019-02-04T05:39:14.042Z,0.69
2019-02-04T05:41:44.291Z,0.67
2019-02-04T05:44:14.604Z,0.67
2019-02-04T05:46:45.134Z,0.73
2019-02-04T05:49:15.363Z,0.80
2019-02-04T05:51:45.747Z,0.83
2019-02-04T05:54:16.346Z,0.83
2019-02-04T05:56:46.597Z,0.83
2019-02-04T05:59:16.912Z,0.88
2019-02-04T06:01:47.260Z,0.89
2019-02-04T06:04:17.706Z,0.93
2019-02-04T06:06:48.293Z,0.96
2019-02-04T06:09:18.684Z,0.95
2019-02-04T06:11:49.353Z,0.94
2019-02-04T06:14:27.973Z,0.95
2019-02-04T06:16:58.253Z,0.98
2019-02-04T06:19:29.096Z,0.99
2019-02-04T06:21:59.617Z,0.99
2019-02-04T06:24:30.226Z,1.03
2019-02-04T06:27:00.674Z,1.06
2019-02-04T06:29:32.301Z,1.08
2019-02-04T06:32:03.043Z,1.13
2019-02-04T06:34:33.931Z,1.17
2019-02-04T06:37:05.479Z,1.17
2019-02-04T06:39:36.194Z,1.17
2019-02-04T06:42:06.489Z,1.20
2019-02-04T06:44:36.771Z,1.18
2019-02-04T06:47:07.196Z,1.20
2019-02-04T06:49:38.067Z,1.18
2019-02-04T06:52:08.916Z,1.18
2019-02-04T06:54:43.348Z,1.14
2019-02-04T06:57:14.599Z,1.19
2019-02-04T06:59:44.889Z,1.19
2019-02-04T07:02:15.237Z,1.22
2019-02-04T07:04:45.535Z,1.20
2019-02-04T07:07:16.129Z,1.21
2019-02-04T07:09:47.078Z,1.17
2019-02-04T07:12:19.880Z,1.14
2019-02-04T07:14:50.591Z,1.18
2019-02-04T07:17:21.129Z,1.21
2019-02-04T07:19:51.936Z,1.21
2019-02-04T07:22:22.460Z,1.23
2019-02-04T07:24:52.969Z,1.25
2019-02-04T07:27:24.336Z,1.26
2019-02-04T07:29:54.627Z,1.28
2019-02-04T07:32:24.952Z,1.27
2019-02-04T07:34:55.288Z,1.31
2019-02-04T07:37:26.015Z,1.33
2019-02-04T07:39:56.744Z,1.34
2019-02-04T07:42:28.091Z,1.39
2019-02-04T07:44:58.537Z,1.48
2019-02-04T07:47:29.052Z,1.59
2019-02-04T07:49:59.726Z,1.69
2019-02-04T07:52:30.532Z,1.80
2019-02-04T07:55:01.065Z,1.85
2019-02-04T07:57:31.715Z,1.90
2019-02-04T08:00:02.070Z,2.01
2019-02-04T08:02:32.498Z,2.05
2019-02-04T08:05:04.917Z,2.03
2019-02-04T08:07:35.190Z,2.06
2019-02-04T08:10:05.906Z,2.09
2019-02-04T08:12:36.353Z,2.09
2019-02-04T08:15:16.286Z,2.10
2019-02-04T08:17:46.977Z,2.09
2019-02-04T08:20:17.713Z,2.14
2019-02-04T08:22:48.948Z,2.19
2019-02-04T08:25:19.295Z,2.23
2019-02-04T08:27:50.258Z,2.30
2019-02-04T08:30:23.818Z,2.41
2019-02-04T08:32:54.563Z,2.53
2019-02-04T08:35:24.795Z,2.66
2019-02-04T08:37:56.134Z,2.74
2019-02-04T08:40:27.619Z,2.82
2019-02-04T08:42:58.137Z,3.06
2019-02-04T08:45:28.471Z,3.28
2019-02-04T08:47:59.125Z,3.19
2019-02-04T08:50:29.879Z,3.07
2019-02-04T08:53:00.203Z,3.07
2019-02-04T08:55:31.694Z,3.19
2019-02-04T08:58:03.062Z,3.31
2019-02-04T09:00:33.544Z,3.30
2019-02-04T09:03:04.121Z,3.34
2019-02-04T09:05:34.501Z,3.43
2019-02-04T09:08:04.831Z,3.52
2019-02-04T09:10:46.295Z,3.46
2019-02-04T09:13:19.469Z,3.42
2019-02-04T09:15:49.721Z,3.46
2019-02-04T09:18:20.074Z,3.48
2019-02-04T09:20:56.289Z,3.57
2019-02-04T09:23:26.649Z,3.59
2019-02-04T09:25:56.998Z,3.67
2019-02-04T09:28:29.836Z,4.12
2019-02-04T09:30:59.822Z,4.62
2019-02-04T09:33:31.387Z,5.47
2019-02-04T09:36:01.800Z,5.58
2019-02-04T09:38:32.082Z,5.95
2019-02-04T09:41:02.398Z,6.18
2019-02-04T09:43:33.742Z,6.17
2019-02-04T09:46:04.015Z,6.06
2019-02-04T09:48:35.628Z,6.19
2019-02-04T09:51:08.677Z,6.15
2019-02-04T09:53:42.375Z,6.16
2019-02-04T09:56:12.655Z,6.18
2019-02-04T09:58:49.771Z,6.05
2019-02-04T10:01:20.037Z,5.97
2019-02-04T10:03:50.341Z,6.16
2019-02-04T10:06:20.904Z,6.13
2019-02-04T10:08:51.236Z,6.12
2019-02-04T10:11:21.838Z,6.04
2019-02-04T10:13:52.170Z,5.91
2019-02-04T10:16:25.867Z,5.88
2019-02-04T10:18:56.256Z,5.98
2019-02-04T10:21:26.923Z,5.98
2019-02-04T10:23:57.491Z,5.82
2019-02-04T10:26:27.852Z,5.53
2019-02-04T10:28:58.464Z,5.37
2019-02-04T10:31:28.773Z,5.31
2019-02-04T10:33:59.357Z,5.09
2019-02-04T10:36:30.062Z,5.13
2019-02-04T10:39:00.673Z,4.97
2019-02-04T10:41:30.969Z,4.99
2019-02-04T10:44:01.957Z,5.01
2019-02-04T10:46:32.219Z,4.82
2019-02-04T10:49:02.698Z,4.76
2019-02-04T10:51:33.024Z,4.70
2019-02-04T10:54:03.336Z,4.59
2019-02-04T10:56:33.702Z,4.49
2019-02-04T10:59:04.241Z,4.52
2019-02-04T11:01:39.014Z,4.45
2019-02-04T11:04:09.455Z,4.43
2019-02-04T11:06:39.991Z,4.42
2019-02-04T11:09:11.026Z,4.38
2019-02-04T11:11:41.546Z,4.32
2019-02-04T11:14:11.952Z,4.39
2019-02-04T11:16:42.775Z,4.36
2019-02-04T11:19:13.386Z,4.32
2019-02-04T11:21:43.697Z,4.32
2019-02-04T11:24:14.178Z,4.25
2019-02-04T11:26:56.342Z,4.24
2019-02-04T11:29:27.063Z,4.16
2019-02-04T11:31:57.336Z,4.15
2019-02-04T11:34:27.680Z,4.14
2019-02-04T11:36:58.415Z,4.19
2019-02-04T11:39:28.986Z,4.17
2019-02-04T11:42:05.578Z,4.17
2019-02-04T11:44:35.947Z,4.14
2019-02-04T11:47:06.634Z,4.15
2019-02-04T11:49:37.398Z,4.12
2019-02-04T11:52:07.813Z,4.14
2019-02-04T11:54:38.328Z,4.19
2019-02-04T11:57:08.887Z,4.28
2019-02-04T11:59:40.276Z,4.35
2019-02-04T12:02:11.093Z,4.35
2019-02-04T12:04:41.865Z,4.35
2019-02-04T12:07:12.292Z,4.38
2019-02-04T12:09:42.546Z,4.38
2019-02-04T12:12:12.926Z,4.43
2019-02-04T12:14:43.228Z,4.45
2019-02-04T12:17:13.516Z,4.47
2019-02-04T12:19:43.801Z,4.55
2019-02-04T12:22:14.713Z,4.53
2019-02-04T12:24:45.105Z,4.51
2019-02-04T12:27:16.800Z,4.44
2019-02-04T12:29:49.890Z,4.47
2019-02-04T12:32:20.136Z,4.50
2019-02-04T12:34:51.973Z,4.51
2019-02-04T12:37:22.228Z,4.55
2019-02-04T12:39:52.652Z,4.52
2019-02-04T12:42:22.934Z,4.48
2019-02-04T12:44:53.242Z,4.59
2019-02-04T12:47:23.395Z,4.64
2019-02-04T12:49:53.646Z,4.71
2019-02-04T12:52:23.867Z,4.72
2019-02-04T12:54:54.069Z,4.69
2019-02-04T12:57:24.480Z,4.72
2019-02-04T12:59:54.661Z,4.70
2019-02-04T13:02:25.018Z,4.75
2019-02-04T13:04:56.409Z,4.76
2019-02-04T13:07:26.602Z,4.72
2019-02-04T13:09:56.834Z,4.72
2019-02-04T13:12:27.588Z,4.76
2019-02-04T13:14:58.320Z,4.79
2019-02-04T13:17:28.621Z,4.66
2019-02-04T13:19:59.721Z,4.58
2019-02-04T13:22:29.990Z,4.59
2019-02-04T13:25:00.432Z,4.49
2019-02-04T13:27:30.679Z,4.50
2019-02-04T13:30:01.288Z,4.47
2019-02-04T13:32:31.673Z,4.50
2019-02-04T13:35:01.939Z,4.52
2019-02-04T13:37:32.197Z,4.62
2019-02-04T13:40:02.828Z,4.66
2019-02-04T13:42:34.200Z,4.67
2019-02-04T13:45:07.255Z,4.66
2019-02-04T13:47:38.641Z,4.61
2019-02-04T13:50:09.014Z,4.59
2019-02-04T13:52:39.430Z,4.58
2019-02-04T13:55:12.003Z,4.60
2019-02-04T13:57:42.220Z,4.65
2019-02-04T14:00:14.426Z,4.66
2019-02-04T14:02:44.679Z,4.62
2019-02-04T14:05:15.706Z,4.55
2019-02-04T14:07:46.554Z,4.53
2019-02-04T14:10:19.368Z,4.57
2019-02-04T14:12:49.738Z,4.62
2019-02-04T14:15:20.074Z,4.68
2019-02-04T14:17:50.485Z,4.67
2019-02-04T14:20:21.083Z,4.61
2019-02-04T14:22:53.375Z,4.61
2019-02-04T14:25:24.937Z,4.63
2019-02-04T14:27:55.557Z,4.61
2019-02-04T14:30:28.868Z,4.64
2019-02-04T14:32:59.174Z,4.64
2019-02-04T14:35:29.544Z,4.55
2019-02-04T14:38:00.047Z,4.58
2019-02-04T14:40:34.724Z,4.60
2019-02-04T14:43:27.177Z,4.58
2019-02-04T14:46:36.654Z,4.60
2019-02-04T14:49:57.246Z,4.59
2019-02-04T14:52:57.924Z,4.60
2019-02-04T14:56:26.411Z,4.52
2019-02-04T14:59:14.357Z,4.44
2019-02-04T15:02:36.460Z,4.33
2019-02-04T15:05:44.959Z,4.32
2019-02-04T15:08:37.531Z,4.30
2019-02-04T15:11:32.622Z,4.24
2019-02-04T15:14:15.453Z,4.29
2019-02-04T15:17:23.449Z,4.33
2019-02-04T15:20:22.657Z,4.35
2019-02-04T15:23:28.246Z,4.36
2019-02-04T15:26:29.568Z,4.32
2019-02-04T15:29:46.905Z,4.30
2019-02-04T15:32:55.785Z,4.35
2019-02-04T15:36:14.970Z,4.36
2019-02-04T15:39:09.597Z,4.40
2019-02-04T15:41:47.166Z,4.37
2019-02-04T15:44:49.232Z,4.38
2019-02-04T15:47:36.566Z,4.46
2019-02-04T15:50:38.598Z,4.40
2019-02-04T15:53:08.879Z,4.39
2019-02-04T15:55:40.076Z,4.39
2019-02-04T15:58:11.937Z,4.36
2019-02-04T16:00:42.414Z,4.36
2019-02-04T16:03:12.677Z,4.35
2019-02-04T16:05:44.185Z,4.35
2019-02-04T16:08:14.590Z,4.35
2019-02-04T16:10:45.127Z,4.27
2019-02-04T16:13:15.443Z,4.22
2019-02-04T16:15:45.858Z,4.15
2019-02-04T16:18:16.076Z,4.10
2019-02-04T16:20:46.357Z,4.07
2019-02-04T16:23:16.664Z,4.01
2019-02-04T16:25:46.989Z,3.97
2019-02-04T16:28:17.351Z,3.90
2019-02-04T16:30:51.265Z,3.93
2019-02-04T16:33:21.626Z,4.00
2019-02-04T16:35:52.301Z,4.01
2019-02-04T16:38:22.639Z,4.07
2019-02-04T16:40:53.243Z,4.08
2019-02-04T16:43:23.892Z,4.05
2019-02-04T16:45:54.135Z,4.08
2019-02-04T16:48:24.447Z,4.14
2019-02-04T16:51:10.641Z,4.04
2019-02-04T16:53:26.716Z,4.00
2019-02-04T16:55:57.681Z,4.00
2019-02-04T16:58:28.570Z,3.92
2019-02-04T17:00:59.478Z,3.90
2019-02-04T17:03:29.876Z,3.89
2019-02-04T17:06:00.839Z,3.92
2019-02-04T17:08:31.963Z,3.99
2019-02-04T17:11:08.609Z,4.04
2019-02-04T17:13:39.207Z,4.10
2019-02-04T17:16:09.967Z,4.10
2019-02-04T17:18:40.353Z,4.04
2019-02-04T17:21:11.030Z,3.99
2019-02-04T17:23:41.407Z,3.98
2019-02-04T17:26:11.913Z,3.86
2019-02-04T17:28:45.579Z,3.83
2019-02-04T17:31:16.011Z,3.76
2019-02-04T17:33:46.626Z,3.71
2019-02-04T17:36:17.099Z,3.63
2019-02-04T17:38:48.774Z,3.50
2019-02-04T17:41:19.266Z,3.38
2019-02-04T17:43:49.630Z,3.22
2019-02-04T17:46:22.093Z,3.14
2019-02-04T17:48:52.441Z,2.93
2019-02-04T17:51:22.845Z,2.84
2019-02-04T17:53:53.328Z,2.78
2019-02-04T17:56:25.277Z,2.74
2019-02-04T17:58:56.779Z,2.72
2019-02-04T18:01:27.223Z,2.64
2019-02-04T18:04:00.146Z,2.64
2019-02-04T18:06:33.703Z,2.59
2019-02-04T18:09:05.187Z,2.60
2019-02-04T18:11:36.332Z,2.58
2019-02-04T18:14:07.709Z,2.56
2019-02-04T18:16:38.444Z,2.55
2019-02-04T18:19:09.085Z,2.55
2019-02-04T18:21:41.717Z,2.56
2019-02-04T18:24:12.156Z,2.54
2019-02-04T18:26:43.067Z,2.56
2019-02-04T18:29:13.858Z,2.63
2019-02-04T18:31:44.847Z,2.63
2019-02-04T18:34:15.892Z,2.65
2019-02-04T18:36:47.450Z,2.67
2019-02-04T18:39:18.061Z,2.69
2019-02-04T18:41:49.041Z,2.72
2019-02-04T18:44:21.353Z,2.75
2019-02-04T18:46:52.040Z,2.79
2019-02-04T18:49:23.085Z,2.84
2019-02-04T18:51:54.848Z,2.90
2019-02-04T18:54:26.937Z,2.96
2019-02-04T18:56:58.060Z,3.04
2019-02-04T18:59:28.404Z,3.15
2019-02-04T19:02:02.007Z,3.25
2019-02-04T19:04:33.779Z,3.32
2019-02-04T19:07:04.482Z,3.40
2019-02-04T19:09:36.327Z,3.44
2019-02-04T19:12:06.973Z,3.45
2019-02-04T19:14:37.501Z,3.54
2019-02-04T19:17:07.803Z,3.57
2019-02-04T19:19:44.594Z,3.58
2019-02-04T19:22:15.065Z,3.57
2019-02-04T19:24:45.645Z,3.60
2019-02-04T19:27:16.397Z,3.60
2019-02-04T19:29:48.646Z,3.59
2019-02-04T19:32:19.889Z,3.60
2019-02-04T19:34:51.162Z,3.60
2019-02-04T19:37:23.029Z,3.65
2019-02-04T19:39:57.296Z,3.68
2019-02-04T19:42:26.565Z,3.70
2019-02-04T19:44:58.155Z,3.66
2019-02-04T19:47:31.922Z,3.73
2019-02-04T19:50:02.236Z,3.73
2019-02-04T19:52:33.734Z,3.66
2019-02-04T19:55:04.164Z,3.65
2019-02-04T19:57:34.967Z,3.63
2019-02-04T20:00:10.011Z,3.58
2019-02-04T20:02:40.542Z,3.54
2019-02-04T20:05:12.349Z,3.48
2019-02-04T20:07:43.241Z,3.42
2019-02-04T20:10:17.581Z,3.40
2019-02-04T20:12:47.879Z,3.34
2019-02-04T20:15:20.840Z,3.18
2019-02-04T20:17:52.351Z,3.18
2019-02-04T20:20:25.465Z,3.24
2019-02-04T20:22:57.292Z,3.19
2019-02-04T20:25:29.126Z,3.12
2019-02-04T20:28:01.591Z,3.09
2019-02-04T20:30:45.159Z,3.06
2019-02-04T20:33:10.406Z,3.05
2019-02-04T20:35:41.819Z,2.91
2019-02-04T20:38:12.542Z,2.92
2019-02-04T20:40:43.146Z,2.92
2019-02-04T20:43:14.000Z,2.93
2019-02-04T20:45:46.480Z,2.88
2019-02-04T20:48:16.879Z,2.88
2019-02-04T20:50:48.551Z,2.85
2019-02-04T20:53:18.925Z,2.76
2019-02-04T20:55:49.347Z,2.71
2019-02-04T20:58:20.021Z,2.71
2019-02-04T21:00:50.376Z,2.71
2019-02-04T21:03:21.315Z,2.74
2019-02-04T21:05:52.462Z,2.73
2019-02-04T21:08:23.529Z,2.70
2019-02-04T21:10:54.059Z,2.67
2019-02-04T21:13:26.910Z,2.62
2019-02-04T21:15:58.094Z,2.61
2019-02-04T21:18:29.173Z,2.55
2019-02-04T21:21:00.543Z,2.54
2019-02-04T21:23:30.823Z,2.56
2019-02-04T21:26:01.772Z,2.52
2019-02-04T21:28:32.212Z,2.55
2019-02-04T21:31:02.551Z,2.51
2019-02-04T21:33:33.006Z,2.49
2019-02-04T21:36:06.476Z,2.48
2019-02-04T21:38:37.080Z,2.49
2019-02-04T21:41:07.663Z,2.50
2019-02-04T21:43:40.601Z,2.47
2019-02-04T21:46:11.260Z,2.44
2019-02-04T21:48:41.632Z,2.42
2019-02-04T21:51:12.259Z,2.41
2019-02-04T21:53:42.661Z,2.40
2019-02-04T21:56:16.113Z,2.42
2019-02-04T21:58:47.896Z,2.42
2019-02-04T22:01:18.366Z,2.43
2019-02-04T22:03:49.105Z,2.44
2019-02-04T22:06:21.813Z,2.47
2019-02-04T22:08:58.456Z,2.50
2019-02-04T22:11:29.254Z,2.49
2019-02-04T22:14:00.384Z,2.52
2019-02-04T22:16:31.005Z,2.53
2019-02-04T22:19:01.995Z,2.52
2019-02-04T22:21:32.486Z,2.52
2019-02-04T22:24:03.221Z,2.57
2019-02-04T22:26:35.736Z,2.60
2019-02-04T22:29:06.816Z,2.63
2019-02-04T22:31:37.205Z,2.73
2019-02-04T22:34:08.304Z,2.75
2019-02-04T22:36:38.962Z,2.71
2019-02-04T22:39:10.067Z,2.68
2019-02-04T22:41:40.791Z,2.67
2019-02-04T22:44:11.165Z,2.72
2019-02-04T22:46:41.786Z,2.73
2019-02-04T22:49:12.934Z,2.76
2019-02-04T22:51:43.771Z,2.82
2019-02-04T22:54:14.648Z,2.75
2019-02-04T22:56:48.277Z,2.80
2019-02-04T22:59:18.609Z,2.91
2019-02-04T23:01:54.489Z,2.97
2019-02-04T23:04:25.130Z,2.98
2019-02-04T23:06:55.511Z,2.94
2019-02-04T23:09:26.079Z,2.96
2019-02-04T23:11:56.389Z,3.01
2019-02-04T23:14:27.113Z,3.09
2019-02-04T23:17:01.969Z,3.01
2019-02-04T23:19:32.276Z,3.01
2019-02-04T23:22:02.828Z,2.96
2019-02-04T23:24:33.525Z,2.95
2019-02-04T23:27:04.060Z,2.90
2019-02-04T23:29:34.338Z,2.95
2019-02-04T23:32:04.828Z,2.97
2019-02-04T23:34:35.126Z,2.98
2019-02-04T23:37:05.988Z,3.00
2019-02-04T23:39:36.548Z,2.97
2019-02-04T23:42:06.851Z,2.99
2019-02-04T23:44:37.273Z,3.00
2019-02-04T23:47:07.626Z,3.01
2019-02-04T23:49:38.453Z,2.96
2019-02-04T23:52:08.841Z,2.96
2019-02-04T23:54:39.192Z,3.02
2019-02-04T23:57:10.047Z,3.01
2019-02-04T23:59:40.318Z,3.05
